createdAt,value
2022-12-11T00:01:25.404Z,-0.38
2022-12-11T00:03:52.063Z,-0.48
2022-12-11T00:06:21.732Z,-0.48
2022-12-11T00:08:51.467Z,-0.52
2022-12-11T00:11:17.964Z,-0.50
2022-12-11T00:13:44.593Z,-0.54
2022-12-11T00:16:11.592Z,-0.49
2022-12-11T00:18:38.575Z,-0.45
2022-12-11T00:21:07.643Z,-0.44
2022-12-11T00:23:37.573Z,-0.43
2022-12-11T00:26:09.398Z,-0.46
2022-12-11T00:28:36.210Z,-0.39
2022-12-11T00:31:07.736Z,-0.37
2022-12-11T00:33:34.573Z,-0.35
2022-12-11T00:36:01.388Z,-0.36
2022-12-11T00:38:28.587Z,-0.40
2022-12-11T00:41:01.000Z,-0.45
2022-12-11T00:43:27.458Z,-0.43
2022-12-11T00:45:54.087Z,-0.40
2022-12-11T00:48:20.599Z,-0.42
2022-12-11T00:50:47.172Z,-0.43
2022-12-11T00:53:13.817Z,-0.50
2022-12-11T00:55:42.158Z,-0.49
2022-12-11T00:58:09.275Z,-0.49
2022-12-11T01:00:36.148Z,-0.58
2022-12-11T01:03:03.181Z,-0.48
2022-12-11T01:05:29.777Z,-0.45
2022-12-11T01:07:56.329Z,-0.47
2022-12-11T01:10:25.672Z,-0.50
2022-12-11T01:12:58.302Z,-0.50
2022-12-11T01:15:28.117Z,-0.64
2022-12-11T01:17:55.340Z,-0.78
2022-12-11T01:20:22.865Z,-0.88
2022-12-11T01:22:53.669Z,-0.85
2022-12-11T01:25:20.176Z,-0.92
2022-12-11T01:27:46.965Z,-0.83
2022-12-11T01:30:14.159Z,-0.79
2022-12-11T01:32:40.617Z,-0.68
2022-12-11T01:35:08.819Z,-0.64
2022-12-11T01:37:35.539Z,-0.61
2022-12-11T01:40:03.926Z,-0.63
2022-12-11T01:42:30.599Z,-0.60
2022-12-11T01:45:26.728Z,-0.53
2022-12-11T01:48:08.345Z,-0.53
2022-12-11T01:50:41.106Z,-0.65
2022-12-11T01:53:12.478Z,-0.49
2022-12-11T01:55:39.970Z,-0.48
2022-12-11T01:58:07.062Z,-0.46
2022-12-11T02:00:33.580Z,-0.45
2022-12-11T02:03:00.153Z,-0.50
2022-12-11T02:05:26.645Z,-0.51
2022-12-11T02:07:58.688Z,-0.58
2022-12-11T02:10:38.231Z,-0.61
2022-12-11T02:13:13.325Z,-0.64
2022-12-11T02:15:56.616Z,-0.60
2022-12-11T02:18:47.391Z,-0.58
2022-12-11T02:21:26.207Z,-0.62
2022-12-11T02:24:18.353Z,-0.62
2022-12-11T02:27:03.292Z,-0.65
2022-12-11T02:29:39.512Z,-0.72
2022-12-11T02:32:35.273Z,-0.58
2022-12-11T02:35:24.351Z,-0.58
2022-12-11T02:38:02.917Z,-0.62
2022-12-11T02:40:33.103Z,-0.62
2022-12-11T02:43:03.430Z,-0.63
2022-12-11T02:45:32.324Z,-0.64
2022-12-11T02:48:02.271Z,-0.67
2022-12-11T02:50:30.167Z,-0.68
2022-12-11T02:52:59.640Z,-0.64
2022-12-11T02:55:28.229Z,-0.77
2022-12-11T02:58:14.700Z,-0.78
2022-12-11T03:00:41.153Z,-0.83
2022-12-11T03:03:07.977Z,-0.78
2022-12-11T03:05:35.228Z,-0.73
2022-12-11T03:08:02.333Z,-0.80
2022-12-11T03:10:28.857Z,-0.88
2022-12-11T03:12:57.782Z,-0.88
2022-12-11T03:15:36.201Z,-0.93
2022-12-11T03:18:49.556Z,-0.87
2022-12-11T03:21:27.547Z,-0.92
2022-12-11T03:24:21.206Z,-0.85
2022-12-11T03:27:17.674Z,-0.87
2022-12-11T03:29:59.231Z,-0.91
2022-12-11T03:32:35.980Z,-0.89
2022-12-11T03:35:13.667Z,-0.91
2022-12-11T03:37:42.306Z,-0.98
2022-12-11T03:40:14.816Z,-1.02
2022-12-11T03:42:43.773Z,-1.02
2022-12-11T03:45:11.942Z,-1.08
2022-12-11T03:47:40.798Z,-1.06
2022-12-11T03:50:10.354Z,-1.06
2022-12-11T03:52:45.593Z,-1.10
2022-12-11T03:55:14.916Z,-1.07
2022-12-11T03:57:41.404Z,-1.01
2022-12-11T04:00:12.119Z,-1.00
2022-12-11T04:02:38.909Z,-1.03
2022-12-11T04:05:05.831Z,-1.08
2022-12-11T04:07:32.404Z,-1.02
2022-12-11T04:09:59.110Z,-1.02
2022-12-11T04:12:25.618Z,-1.02
2022-12-11T04:15:04.145Z,-1.03
2022-12-11T04:17:55.782Z,-1.00
2022-12-11T04:20:45.560Z,-0.97
2022-12-11T04:23:33.880Z,-0.98
2022-12-11T04:26:08.081Z,-0.96
2022-12-11T04:28:35.751Z,-0.94
2022-12-11T04:31:02.918Z,-0.94
2022-12-11T04:33:29.601Z,-1.00
2022-12-11T04:36:00.279Z,-0.94
2022-12-11T04:38:27.400Z,-0.94
2022-12-11T04:41:02.150Z,-0.99
2022-12-11T04:43:29.120Z,-1.02
2022-12-11T04:46:07.176Z,-1.06
2022-12-11T04:48:34.677Z,-1.06
2022-12-11T04:51:01.201Z,-1.03
2022-12-11T04:53:28.271Z,-1.04
2022-12-11T04:55:55.179Z,-1.07
2022-12-11T04:58:22.342Z,-1.05
2022-12-11T05:00:48.809Z,-1.07
2022-12-11T05:03:15.373Z,-1.20
2022-12-11T05:05:48.136Z,-1.09
2022-12-11T05:08:14.647Z,-1.12
2022-12-11T05:10:45.756Z,-1.12
2022-12-11T05:13:15.042Z,-1.13
2022-12-11T05:15:41.563Z,-1.11
2022-12-11T05:18:08.068Z,-1.07
2022-12-11T05:20:34.556Z,-1.02
2022-12-11T05:23:01.047Z,-1.02
2022-12-11T05:25:27.490Z,-1.04
2022-12-11T05:27:53.989Z,-1.05
2022-12-11T05:30:20.502Z,-1.02
2022-12-11T05:32:47.009Z,-0.99
2022-12-11T05:35:13.700Z,-0.98
2022-12-11T05:37:40.947Z,-0.95
2022-12-11T05:40:07.988Z,-0.99
2022-12-11T05:42:35.016Z,-0.98
2022-12-11T05:45:01.539Z,-0.98
2022-12-11T05:47:28.074Z,-1.05
2022-12-11T05:49:54.565Z,-1.01
2022-12-11T05:52:21.687Z,-0.96
2022-12-11T05:54:51.043Z,-1.04
2022-12-11T05:57:17.789Z,-1.11
2022-12-11T05:59:45.229Z,-0.97
2022-12-11T06:02:11.782Z,-0.93
2022-12-11T06:04:38.313Z,-0.95
2022-12-11T06:07:04.771Z,-0.95
2022-12-11T06:09:31.273Z,-0.92
2022-12-11T06:11:57.735Z,-0.90
2022-12-11T06:14:24.192Z,-0.93
2022-12-11T06:16:50.894Z,-0.90
2022-12-11T06:19:18.585Z,-0.93
2022-12-11T06:21:45.974Z,-0.88
2022-12-11T06:24:12.559Z,-0.92
2022-12-11T06:26:39.195Z,-0.92
2022-12-11T06:29:09.217Z,-0.86
2022-12-11T06:31:39.378Z,-0.88
2022-12-11T06:34:06.073Z,-0.98
2022-12-11T06:36:32.652Z,-0.87
2022-12-11T06:38:59.084Z,-0.87
2022-12-11T06:41:25.816Z,-0.91
2022-12-11T06:43:52.475Z,-0.90
2022-12-11T06:46:20.111Z,-0.86
2022-12-11T06:48:47.976Z,-0.92
2022-12-11T06:51:17.031Z,-0.87
2022-12-11T06:53:44.130Z,-0.90
2022-12-11T06:56:14.272Z,-0.90
2022-12-11T06:58:42.415Z,-0.87
2022-12-11T07:01:19.147Z,-0.84
2022-12-11T07:03:45.866Z,-0.85
2022-12-11T07:06:12.884Z,-0.86
2022-12-11T07:08:39.516Z,-0.94
2022-12-11T07:11:09.546Z,-0.91
2022-12-11T07:13:36.372Z,-0.85
2022-12-11T07:16:04.723Z,-0.92
2022-12-11T07:18:34.573Z,-0.90
2022-12-11T07:21:01.172Z,-0.88
2022-12-11T07:23:28.733Z,-0.87
2022-12-11T07:25:56.571Z,-0.82
2022-12-11T07:28:23.322Z,-0.84
2022-12-11T07:30:50.032Z,-0.92
2022-12-11T07:33:16.538Z,-0.90
2022-12-11T07:35:43.087Z,-1.00
2022-12-11T07:38:09.584Z,-0.91
2022-12-11T07:40:36.077Z,-0.95
2022-12-11T07:43:02.725Z,-1.01
2022-12-11T07:45:29.627Z,-0.95
2022-12-11T07:47:56.258Z,-1.12
2022-12-11T07:50:23.109Z,-0.91
2022-12-11T07:52:49.570Z,-0.85
2022-12-11T07:55:16.173Z,-0.85
2022-12-11T07:57:42.638Z,-0.82
2022-12-11T08:00:10.599Z,-0.80
2022-12-11T08:02:37.891Z,-0.88
2022-12-11T08:05:04.973Z,-0.90
2022-12-11T08:07:34.393Z,-0.87
2022-12-11T08:10:01.008Z,-0.91
2022-12-11T08:12:27.444Z,-0.88
2022-12-11T08:14:53.892Z,-0.95
2022-12-11T08:17:23.373Z,-0.75
2022-12-11T08:19:53.942Z,-0.74
2022-12-11T08:22:20.395Z,-0.71
2022-12-11T08:24:46.930Z,-0.71
2022-12-11T08:27:13.386Z,-0.68
2022-12-11T08:29:39.901Z,-0.77
2022-12-11T08:32:11.915Z,-0.71
2022-12-11T08:34:38.847Z,-0.57
2022-12-11T08:37:05.368Z,-0.57
2022-12-11T08:39:31.902Z,-0.57
2022-12-11T08:41:58.669Z,-0.53
2022-12-11T08:44:26.767Z,-0.56
2022-12-11T08:46:53.276Z,-0.51
2022-12-11T08:49:19.727Z,-0.52
2022-12-11T08:51:46.227Z,-0.47
2022-12-11T08:54:12.793Z,-0.45
2022-12-11T08:56:39.340Z,-0.48
2022-12-11T08:59:06.249Z,-0.51
2022-12-11T09:01:32.967Z,-0.45
2022-12-11T09:03:59.454Z,-0.43
2022-12-11T09:06:29.248Z,-0.42
2022-12-11T09:08:58.451Z,-0.43
2022-12-11T09:11:28.252Z,-0.41
2022-12-11T09:13:54.936Z,-0.44
2022-12-11T09:16:23.502Z,-0.42
2022-12-11T09:18:51.849Z,-0.52
2022-12-11T09:21:20.980Z,-0.57
2022-12-11T09:23:48.241Z,-0.65
2022-12-11T09:26:16.899Z,-0.68
2022-12-11T09:28:46.683Z,-0.76
2022-12-11T09:31:25.742Z,-0.68
2022-12-11T09:33:55.351Z,-0.66
2022-12-11T09:36:22.804Z,-0.65
2022-12-11T09:38:49.518Z,-0.55
2022-12-11T09:41:22.043Z,-0.52
2022-12-11T09:43:51.460Z,-0.49
2022-12-11T09:46:21.604Z,-0.67
2022-12-11T09:48:53.544Z,-0.78
2022-12-11T09:51:26.079Z,-0.82
2022-12-11T09:53:56.754Z,-0.88
2022-12-11T09:57:18.671Z,-0.77
2022-12-11T09:59:52.739Z,-0.69
2022-12-11T10:02:32.420Z,-0.66
2022-12-11T10:05:24.169Z,-0.61
2022-12-11T10:08:06.109Z,-0.60
2022-12-11T10:10:42.901Z,-0.53
2022-12-11T10:13:15.169Z,-0.45
2022-12-11T10:16:06.667Z,-0.38
2022-12-11T10:18:33.883Z,-0.34
2022-12-11T10:21:03.180Z,-0.30
2022-12-11T10:23:38.227Z,-0.23
2022-12-11T10:26:14.193Z,-0.28
2022-12-11T10:28:40.710Z,-0.24
2022-12-11T10:31:19.140Z,-0.20
2022-12-11T10:34:02.122Z,-0.19
2022-12-11T10:36:35.629Z,-0.18
2022-12-11T10:39:03.213Z,-0.13
2022-12-11T10:41:39.280Z,-0.12
2022-12-11T10:44:21.995Z,-0.17
2022-12-11T10:47:02.650Z,-0.08
2022-12-11T10:49:31.124Z,-0.05
2022-12-11T10:52:01.349Z,-0.03
2022-12-11T10:54:27.752Z,-0.03
2022-12-11T10:56:54.896Z,-0.01
2022-12-11T10:59:32.024Z,0.02
2022-12-11T11:01:58.757Z,0.06
2022-12-11T11:04:35.657Z,-0.03
2022-12-11T11:07:31.488Z,0.06
2022-12-11T11:10:27.450Z,0.05
2022-12-11T11:13:01.584Z,0.06
2022-12-11T11:15:31.393Z,0.04
2022-12-11T11:18:16.694Z,0.05
2022-12-11T11:20:47.869Z,0.04
2022-12-11T11:23:16.454Z,0.05
2022-12-11T11:25:52.473Z,0.11
2022-12-11T11:28:26.998Z,0.01
2022-12-11T11:31:08.438Z,0.01
2022-12-11T11:33:38.001Z,0.02
2022-12-11T11:36:07.735Z,0.06
2022-12-11T11:39:20.480Z,0.09
2022-12-11T11:41:51.805Z,-0.05
2022-12-11T11:44:44.284Z,0.12
2022-12-11T11:47:34.584Z,0.20
2022-12-11T11:50:08.434Z,0.26
2022-12-11T11:52:44.204Z,0.31
2022-12-11T11:55:35.451Z,0.34
2022-12-11T11:58:13.968Z,0.30
2022-12-11T12:00:40.605Z,0.22
2022-12-11T12:03:13.857Z,0.20
2022-12-11T12:05:40.294Z,0.25
2022-12-11T12:08:12.860Z,0.29
2022-12-11T12:10:58.015Z,0.33
2022-12-11T12:13:54.561Z,0.40
2022-12-11T12:16:52.330Z,0.48
2022-12-11T12:19:24.044Z,0.50
2022-12-11T12:21:53.036Z,0.50
2022-12-11T12:24:43.643Z,0.55
2022-12-11T12:27:51.084Z,0.54
2022-12-11T12:30:22.102Z,0.44
2022-12-11T12:33:04.196Z,0.38
2022-12-11T12:35:36.677Z,0.39
2022-12-11T12:38:09.428Z,0.34
2022-12-11T12:41:02.179Z,0.34
2022-12-11T12:43:40.822Z,0.32
2022-12-11T12:46:35.511Z,0.35
2022-12-11T12:49:03.586Z,0.41
2022-12-11T12:51:30.947Z,0.42
2022-12-11T12:54:00.475Z,0.43
2022-12-11T12:56:30.596Z,0.44
2022-12-11T12:58:57.732Z,0.43
2022-12-11T13:01:27.478Z,0.49
2022-12-11T13:03:57.545Z,0.57
2022-12-11T13:06:40.767Z,0.62
2022-12-11T13:09:28.026Z,0.64
2022-12-11T13:11:59.516Z,0.65
2022-12-11T13:14:33.734Z,0.65
2022-12-11T13:17:34.960Z,0.67
2022-12-11T13:20:20.804Z,0.67
2022-12-11T13:23:11.660Z,0.65
2022-12-11T13:25:55.248Z,0.69
2022-12-11T13:28:24.330Z,0.67
2022-12-11T13:31:01.416Z,0.63
2022-12-11T13:33:30.377Z,0.66
2022-12-11T13:36:14.965Z,0.68
2022-12-11T13:38:50.990Z,0.67
2022-12-11T13:41:19.531Z,0.71
2022-12-11T13:43:48.820Z,0.70
2022-12-11T13:46:21.183Z,0.71
2022-12-11T13:48:53.765Z,0.69
2022-12-11T13:51:22.909Z,0.72
2022-12-11T13:53:49.801Z,0.68
2022-12-11T13:56:18.895Z,0.73
2022-12-11T13:58:45.523Z,0.71
2022-12-11T14:01:32.692Z,0.74
2022-12-11T14:04:08.365Z,0.69
2022-12-11T14:06:36.958Z,0.62
2022-12-11T14:09:05.513Z,0.67
2022-12-11T14:11:38.577Z,0.71
2022-12-11T14:14:08.217Z,0.69
2022-12-11T14:16:35.026Z,0.75
2022-12-11T14:19:05.374Z,0.72
2022-12-11T14:21:32.159Z,0.73
2022-12-11T14:24:03.333Z,0.77
2022-12-11T14:26:34.302Z,0.76
2022-12-11T14:29:00.995Z,0.71
2022-12-11T14:31:30.141Z,0.76
2022-12-11T14:34:13.804Z,0.76
2022-12-11T14:36:41.370Z,0.74
2022-12-11T14:39:16.981Z,0.75
2022-12-11T14:41:52.832Z,0.75
2022-12-11T14:44:23.750Z,0.76
2022-12-11T14:46:54.675Z,0.74
2022-12-11T14:49:33.578Z,0.76
2022-12-11T14:52:00.564Z,0.67
2022-12-11T14:54:41.638Z,0.74
2022-12-11T14:57:15.240Z,0.67
2022-12-11T14:59:47.122Z,0.74
2022-12-11T15:02:29.606Z,0.73
2022-12-11T15:05:19.299Z,0.69
2022-12-11T15:08:16.250Z,0.64
2022-12-11T15:10:56.020Z,0.64
2022-12-11T15:13:24.595Z,0.61
2022-12-11T15:15:52.981Z,0.64
2022-12-11T15:18:22.634Z,0.63
2022-12-11T15:20:54.666Z,0.60
2022-12-11T15:23:21.480Z,0.58
2022-12-11T15:25:53.541Z,0.59
2022-12-11T15:28:35.714Z,0.57
2022-12-11T15:31:25.084Z,0.58
2022-12-11T15:33:52.029Z,0.57
2022-12-11T15:36:30.392Z,0.52
2022-12-11T15:38:57.480Z,0.46
2022-12-11T15:41:24.898Z,0.46
2022-12-11T15:43:58.926Z,0.39
2022-12-11T15:46:26.425Z,0.42
2022-12-11T15:48:53.581Z,0.27
2022-12-11T15:51:20.026Z,0.33
2022-12-11T15:53:46.461Z,0.32
2022-12-11T15:56:16.400Z,0.33
2022-12-11T15:58:48.991Z,0.29
2022-12-11T16:01:15.505Z,0.30
2022-12-11T16:03:42.051Z,0.29
2022-12-11T16:06:13.413Z,0.18
2022-12-11T16:08:39.916Z,0.24
2022-12-11T16:11:06.495Z,0.20
2022-12-11T16:13:32.911Z,0.08
2022-12-11T16:15:59.454Z,0.18
2022-12-11T16:18:26.504Z,0.05
2022-12-11T16:20:53.134Z,0.13
2022-12-11T16:23:19.765Z,0.17
2022-12-11T16:25:47.018Z,0.11
2022-12-11T16:28:15.361Z,0.14
2022-12-11T16:30:43.487Z,0.12
2022-12-11T16:33:13.159Z,0.12
2022-12-11T16:35:41.709Z,0.10
2022-12-11T16:38:09.993Z,0.04
2022-12-11T16:40:37.318Z,0.02
2022-12-11T16:43:05.112Z,0.06
2022-12-11T16:45:32.246Z,-0.02
2022-12-11T16:47:58.819Z,0.00
2022-12-11T16:50:25.972Z,-0.02
2022-12-11T16:52:52.493Z,-0.01
2022-12-11T16:55:22.149Z,-0.02
2022-12-11T16:57:48.659Z,-0.08
2022-12-11T17:00:15.804Z,-0.05
2022-12-11T17:02:42.439Z,-0.10
2022-12-11T17:05:09.301Z,-0.10
2022-12-11T17:07:35.958Z,-0.10
2022-12-11T17:10:03.272Z,-0.17
2022-12-11T17:12:30.450Z,-0.15
2022-12-11T17:14:57.383Z,-0.20
2022-12-11T17:17:24.768Z,-0.17
2022-12-11T17:19:51.273Z,-0.19
2022-12-11T17:22:17.831Z,-0.15
2022-12-11T17:24:44.404Z,-0.18
2022-12-11T17:27:10.982Z,-0.17
2022-12-11T17:29:37.898Z,-0.17
2022-12-11T17:32:04.725Z,-0.20
2022-12-11T17:34:37.572Z,-0.17
2022-12-11T17:37:04.999Z,-0.22
2022-12-11T17:39:31.726Z,-0.19
2022-12-11T17:41:58.359Z,-0.17
2022-12-11T17:44:26.623Z,-0.11
2022-12-11T17:46:53.478Z,-0.12
2022-12-11T17:49:20.060Z,-0.09
2022-12-11T17:51:46.654Z,-0.22
2022-12-11T17:54:13.324Z,-0.18
2022-12-11T17:56:40.543Z,-0.18
2022-12-11T17:59:07.100Z,-0.13
2022-12-11T18:01:33.933Z,-0.10
2022-12-11T18:04:01.905Z,-0.08
2022-12-11T18:06:28.736Z,-0.13
2022-12-11T18:08:55.324Z,-0.11
2022-12-11T18:11:22.919Z,-0.21
2022-12-11T18:13:51.958Z,-0.13
2022-12-11T18:16:26.204Z,-0.09
2022-12-11T18:18:53.515Z,-0.11
2022-12-11T18:21:23.363Z,-0.15
2022-12-11T18:23:50.991Z,-0.16
2022-12-11T18:26:19.078Z,-0.18
2022-12-11T18:28:46.237Z,-0.25
2022-12-11T18:31:13.692Z,-0.21
2022-12-11T18:33:42.504Z,-0.25
2022-12-11T18:36:09.793Z,-0.24
2022-12-11T18:38:36.298Z,-0.28
2022-12-11T18:41:05.137Z,-0.30
2022-12-11T18:43:31.696Z,-0.25
2022-12-11T18:45:58.204Z,-0.25
2022-12-11T18:48:24.651Z,-0.24
2022-12-11T18:50:51.830Z,-0.16
2022-12-11T18:53:19.575Z,-0.21
2022-12-11T18:55:48.246Z,-0.12
2022-12-11T18:58:17.652Z,-0.16
2022-12-11T19:00:44.854Z,-0.20
2022-12-11T19:03:13.624Z,-0.28
2022-12-11T19:05:43.728Z,-0.23
2022-12-11T19:08:12.630Z,-0.23
2022-12-11T19:10:46.452Z,-0.25
2022-12-11T19:13:13.709Z,-0.21
2022-12-11T19:15:42.792Z,-0.20
2022-12-11T19:18:09.748Z,-0.17
2022-12-11T19:20:55.424Z,-0.22
2022-12-11T19:23:24.492Z,-0.11
2022-12-11T19:25:51.040Z,-0.08
2022-12-11T19:28:17.634Z,-0.09
2022-12-11T19:30:48.776Z,-0.28
2022-12-11T19:33:16.303Z,-0.17
2022-12-11T19:35:42.979Z,-0.22
2022-12-11T19:38:09.851Z,-0.18
2022-12-11T19:40:45.015Z,-0.13
2022-12-11T19:43:11.873Z,-0.18
2022-12-11T19:45:38.486Z,-0.14
2022-12-11T19:48:05.672Z,-0.04
2022-12-11T19:50:32.166Z,-0.04
2022-12-11T19:52:58.701Z,-0.02
2022-12-11T19:55:25.127Z,-0.03
2022-12-11T19:57:51.664Z,-0.09
2022-12-11T20:00:18.877Z,-0.09
2022-12-11T20:02:45.402Z,-0.07
2022-12-11T20:05:13.188Z,-0.01
2022-12-11T20:07:40.125Z,-0.06
2022-12-11T20:10:07.193Z,-0.01
2022-12-11T20:12:33.766Z,0.04
2022-12-11T20:15:00.257Z,0.03
2022-12-11T20:17:26.814Z,0.01
2022-12-11T20:19:53.289Z,0.04
2022-12-11T20:22:19.807Z,-0.05
2022-12-11T20:24:46.279Z,0.06
2022-12-11T20:27:12.778Z,0.04
2022-12-11T20:29:39.488Z,0.01
2022-12-11T20:32:06.698Z,-0.01
2022-12-11T20:34:33.278Z,0.02
2022-12-11T20:37:00.384Z,-0.02
2022-12-11T20:39:27.138Z,0.03
2022-12-11T20:41:53.666Z,0.02
2022-12-11T20:44:20.412Z,0.03
2022-12-11T20:46:46.977Z,0.02
2022-12-11T20:49:13.440Z,0.00
2022-12-11T20:51:40.298Z,0.01
2022-12-11T20:54:07.039Z,0.01
2022-12-11T20:56:33.573Z,-0.01
2022-12-11T20:59:00.851Z,-0.08
2022-12-11T21:01:30.688Z,0.00
2022-12-11T21:03:58.539Z,-0.02
2022-12-11T21:06:31.019Z,-0.06
2022-12-11T21:09:03.191Z,-0.03
2022-12-11T21:11:29.775Z,-0.06
2022-12-11T21:13:56.390Z,-0.03
2022-12-11T21:16:23.613Z,-0.02
2022-12-11T21:18:50.558Z,-0.03
2022-12-11T21:21:17.637Z,-0.03
2022-12-11T21:23:44.992Z,-0.01
2022-12-11T21:26:12.038Z,-0.02
2022-12-11T21:28:38.731Z,-0.02
2022-12-11T21:31:08.309Z,-0.03
2022-12-11T21:33:35.764Z,-0.03
2022-12-11T21:36:03.512Z,-0.09
2022-12-11T21:38:30.187Z,-0.09
2022-12-11T21:40:56.725Z,-0.06
2022-12-11T21:43:24.124Z,-0.05
2022-12-11T21:46:07.042Z,-0.07
2022-12-11T21:48:33.671Z,-0.08
2022-12-11T21:51:15.518Z,-0.09
2022-12-11T21:53:42.991Z,-0.14
2022-12-11T21:56:15.332Z,-0.10
2022-12-11T21:58:42.511Z,-0.17
2022-12-11T22:01:23.213Z,-0.09
2022-12-11T22:03:50.790Z,-0.11
2022-12-11T22:06:17.411Z,-0.09
2022-12-11T22:08:44.141Z,-0.11
2022-12-11T22:11:10.893Z,-0.20
2022-12-11T22:13:37.342Z,-0.12
2022-12-11T22:16:03.985Z,-0.06
2022-12-11T22:18:30.523Z,-0.05
2022-12-11T22:20:58.009Z,-0.02
2022-12-11T22:23:24.925Z,-0.01
2022-12-11T22:25:52.651Z,0.01
2022-12-11T22:28:19.490Z,-0.07
2022-12-11T22:30:46.290Z,0.03
2022-12-11T22:33:12.991Z,-0.03
2022-12-11T22:35:39.681Z,0.05
2022-12-11T22:38:06.785Z,0.06
2022-12-11T22:40:33.383Z,0.06
2022-12-11T22:43:00.286Z,0.08
2022-12-11T22:45:26.800Z,0.08
2022-12-11T22:47:53.262Z,0.05
2022-12-11T22:50:19.796Z,0.12
2022-12-11T22:52:46.343Z,0.15
2022-12-11T22:55:13.135Z,0.18
2022-12-11T22:57:39.838Z,0.17
2022-12-11T23:00:13.211Z,0.21
2022-12-11T23:02:39.852Z,0.19
2022-12-11T23:05:06.893Z,0.17
2022-12-11T23:07:34.031Z,0.22
2022-12-11T23:10:01.035Z,0.23
2022-12-11T23:12:27.559Z,0.21
2022-12-11T23:14:54.012Z,0.14
2022-12-11T23:17:20.505Z,0.21
2022-12-11T23:19:47.028Z,0.22
2022-12-11T23:22:13.857Z,0.22
2022-12-11T23:24:40.636Z,0.24
2022-12-11T23:27:07.342Z,0.20
2022-12-11T23:29:34.131Z,0.26
2022-12-11T23:32:00.928Z,0.26
2022-12-11T23:34:27.333Z,0.29
2022-12-11T23:36:54.012Z,0.29
2022-12-11T23:39:20.467Z,0.30
2022-12-11T23:41:46.939Z,0.30
2022-12-11T23:44:13.430Z,0.30
2022-12-11T23:46:39.849Z,0.27
2022-12-11T23:49:06.362Z,0.28
2022-12-11T23:51:32.813Z,0.25
2022-12-11T23:53:59.250Z,0.26
2022-12-11T23:56:28.339Z,0.26
2022-12-11T23:58:55.741Z,0.23
